Aérodrome :







RETROUVEZ-NOUS SUR...

 
LOGIN :

S'inscrire | Disclaimer

   EN    FR    IT 

 









Légende :    VFR   VFR Marginal   IFR   IFR Intensif   IFR Très Intensif
Visi : 
Plafond : 
>= 8 km
>= 3000ft
5 à 8 km
1000 à 3000 ft
1500m à 5 km
500 à 1000 ft
800 à 1500m
200 à 500 ft
< 800m
< 200 ft
Symboles :   Orages  Brouillard  Fortes neiges  Fortes précipitations  Vent > 20 kt






- Altitude de l'aérodrome : 172 ft
- Code IATA : YYY


CYYY - Mont Joli

DERNIER METAR :
  • 150900Z 06010KT 15SM -RA FEW003 OVC015 01/01 A2880 RMK SF2SC6 PRESFR SLP757

METARs EXPIRÉS :
  • 150800Z 08008KT 040V120 10SM -RA FEW003 OVC015 01/01 A2886 RMK SF3SC5 PRESFR SLP776
  • 150700Z VRB09KT 10SM -RA FEW007 OVC015 01/00 A2892 RMK SF2SC6 PRESFR SLP796

TAF TAF CYYY
Valide du 15 à 08h jusqu'au 15 à 20h UTC


150738Z 1508/1520 10008KT P6SM -RA FEW007 OVC020
TEMPO 1508/1512 1SM RA BR OVC007
BECMG 1509/1511 23020G30KT
FM151200 23020G30KT P6SM -RA BKN025
TEMPO 1512/1516 2SM -RASN BR BKN008
FM151600 23025G35KT 3SM -SN OVC025
BECMG 1516/1518 25035G50KT RMK NXT FCST BY 151400Z



MET'MAP, la Météo Aéronautique d'un coup d'oeil ! - Copyright ORBIFLY Décembre 2007 - Disclaimer

ORBIFLY MET'MAP TEAM :

Programmation & Développement : Alexandra Zaïnal
Sur une idée originale de : Baudouin d'Aumeries
Assistance à la programmation : Marc-Olivier Méhu
Soutien technique & logistique : Manuel Goepfert

Contact : metmap@orbifly.com




SOURCES & CREDITS :

   NOAA